»·PEaware :: N1374U KYKM-KPSC

N1374U :: KYKM-KPSC

FLIGHT INFORMATION

Flight Status: Arrived
Operator: Privately registered:
United States
More flights under this callsign
Pilot: Herbert L. (28081)
Aircraft: CESSNA 172 SKYHAWK
(C172)
More flights by this aircraft type
Origin: KYKM Yakima Air Term/Mcallister
United States
Destination: KPSC Tri-Cities
United States
More flights between these airports :: More routes between these airports
Route: +
File this flight plan on PilotEdge
Remarks:
Altitude:
(Current/Filed)
7,500ft
Speed:
(Current/Filed)
125kts
Departed: 18-Mar-20 05:58 PM
Arrived: 18-Mar-20 06:36 PM
Distance/Time
Traveled:
62nm/0:38
Distance/Time
To Go:
Arrived

Flight Plot

Page will automatically refresh every two minutes.


Map Options




Map Legend


Flown Route
Filed Route
Departure Airport
Arrival Airport
Navaid (VOR, NDB)
Fix

Horizontal Profiles

Position Reports

Time Latitude Longitude Heading Altitude Ground
Speed
18-Mar-20 17:47 46.571342 -120.547972 91 1102ft 0kts
18-Mar-20 17:48 46.571342 -120.547972 91 1102ft 0kts
18-Mar-20 17:50 46.571342 -120.547972 91 1102ft 0kts
18-Mar-20 17:50 46.571342 -120.547972 91 1102ft 0kts
18-Mar-20 17:51 46.571106 -120.547726 165 1102ft 2kts
18-Mar-20 17:53 46.571146 -120.549298 289 1102ft 7kts
18-Mar-20 17:53 46.571894 -120.552260 289 1102ft 10kts
18-Mar-20 17:54 46.572894 -120.556155 288 1102ft 11kts
18-Mar-20 17:55 46.573315 -120.558883 218 1102ft 0kts
18-Mar-20 17:56 46.572177 -120.557934 109 1102ft 21kts
18-Mar-20 17:57 46.564581 -120.531248 106 1662ft 84kts
18-Mar-20 17:58 46.557312 -120.497505 106 2473ft 90kts
18-Mar-20 17:59 46.549697 -120.462626 106 3273ft 90kts
18-Mar-20 18:00 46.542083 -120.428282 106 4067ft 87kts
18-Mar-20 18:01 46.534481 -120.395781 107 4758ft 90kts
18-Mar-20 18:03 46.523217 -120.348367 108 5276ft 117kts
18-Mar-20 18:03 46.514145 -120.310001 107 5618ft 122kts
18-Mar-20 18:04 46.503018 -120.262997 107 6019ft 123kts
18-Mar-20 18:05 46.491995 -120.216656 107 6497ft 119kts
18-Mar-20 18:06 46.481193 -120.171578 107 6993ft 117kts
18-Mar-20 18:07 46.470460 -120.127062 107 7461ft 119kts
18-Mar-20 18:08 46.459426 -120.081033 107 7464ft 121kts
18-Mar-20 18:09 46.449047 -120.034608 105 7465ft 121kts
18-Mar-20 18:10 46.439146 -119.987763 105 7465ft 121kts
18-Mar-20 18:11 46.430133 -119.940597 103 7465ft 122kts
18-Mar-20 18:12 46.421330 -119.892916 103 7465ft 123kts
18-Mar-20 18:13 46.412567 -119.844819 103 7466ft 124kts
18-Mar-20 18:14 46.403985 -119.796351 100 7467ft 124kts
18-Mar-20 18:15 46.396977 -119.747917 100 7474ft 119kts
18-Mar-20 18:16 46.390165 -119.700673 101 7070ft 118kts
18-Mar-20 18:17 46.383373 -119.654397 101 6567ft 117kts
18-Mar-20 18:18 46.376833 -119.608283 101 6065ft 117kts
18-Mar-20 18:19 46.370477 -119.562013 103 5563ft 117kts
18-Mar-20 18:20 46.358622 -119.518141 115 5061ft 117kts
18-Mar-20 18:21 46.343806 -119.476134 117 4559ft 117kts
18-Mar-20 18:22 46.329034 -119.433953 117 4056ft 117kts
18-Mar-20 18:23 46.314408 -119.391599 117 3553ft 118kts
18-Mar-20 18:24 46.299847 -119.348888 117 3048ft 118kts
18-Mar-20 18:25 46.285451 -119.306206 117 2548ft 118kts
18-Mar-20 18:26 46.271121 -119.263282 117 2047ft 118kts
18-Mar-20 18:27 46.258325 -119.224241 117 1556ft 95kts
18-Mar-20 18:28 46.248614 -119.193708 120 1439ft 81kts
18-Mar-20 18:29 46.236444 -119.164229 123 1457ft 89kts
18-Mar-20 18:30 46.237454 -119.132805 55 1445ft 88kts
18-Mar-20 18:31 46.251934 -119.107405 53 1429ft 81kts
18-Mar-20 18:32 46.266916 -119.080825 58 1324ft 83kts
18-Mar-20 18:33 46.285347 -119.078783 296 1117ft 76kts
18-Mar-20 18:34 46.275736 -119.100176 221 732ft 67kts
18-Mar-20 18:35 46.264592 -119.116128 229 413ft 22kts
18-Mar-20 18:36 46.263570 -119.116225 136 413ft 0kts
18-Mar-20 18:37 46.263570 -119.116225 136 413ft 0kts
18-Mar-20 18:38 46.262134 -119.112663 67 413ft 6kts
18-Mar-20 18:39 46.262836 -119.109999 71 413ft 6kts

Navigation Log

Ident Type
Flight plan parsing failed, navigation log unavailable